Time;durP1;ratioP1;P1;durP2;ratioP2;P2;SDS_P1;SDS_P2;PMS_P1;PMS_P2;Temp;Humidity;BMP_temperature;BMP_pressure;BME280_temperature;BME280_humidity;BME280_pressure;Samples;Min_cycle;Max_cycle;Signal;HPM_P1;HPM_P2
2021/01/21 00:02:14;;;;;;;123.82;35.30;;;;;;;-20.67;82.52;102252.66;1862238;77;21164;-88
2021/01/21 00:04:41;;;;;;;108.72;35.17;;;;;;;-20.67;82.58;102250.17;1862070;77;21544;-88
2021/01/21 00:07:09;;;;;;;100.80;34.33;;;;;;;-20.68;82.65;102255.02;1862114;77;21163;-87
2021/01/21 00:09:38;;;;;;;39.65;16.57;;;;;;;-20.65;82.70;102255.23;1862072;77;21532;-88
2021/01/21 00:12:07;;;;;;;118.80;36.25;;;;;;;-20.62;82.80;102259.56;1862301;77;21125;-87
2021/01/21 00:14:35;;;;;;;63.23;21.93;;;;;;;-20.62;82.86;102255.49;1862384;77;21204;-88
2021/01/21 00:17:04;;;;;;;122.28;39.23;;;;;;;-20.60;82.82;102248.17;1862095;76;21116;-87
2021/01/21 00:19:33;;;;;;;111.92;35.88;;;;;;;-20.59;82.93;102246.19;1862370;77;21177;-87
2021/01/21 00:22:02;;;;;;;71.02;24.30;;;;;;;-20.61;82.70;102243.95;1862127;77;21191;-88
2021/01/21 00:24:30;;;;;;;83.60;29.80;;;;;;;-20.65;82.59;102247.45;1862303;76;21536;-88
2021/01/21 00:26:58;;;;;;;131.57;37.88;;;;;;;-20.71;82.50;102239.55;1862120;77;21339;-88
2021/01/21 00:29:26;;;;;;;108.35;32.70;;;;;;;-20.73;82.63;102248.50;1862152;77;21203;-88
2021/01/21 00:31:54;;;;;;;126.22;36.50;;;;;;;-20.79;82.39;102243.08;1862311;76;21168;-87
2021/01/21 00:34:22;;;;;;;130.05;37.17;;;;;;;-20.82;82.38;102234.16;1862185;77;22255;-88
2021/01/21 00:36:51;;;;;;;111.17;34.18;;;;;;;-20.86;82.37;102241.72;1862041;77;21639;-88
2021/01/21 00:39:19;;;;;;;156.72;45.67;;;;;;;-20.88;82.57;102241.95;1862052;76;21545;-88
2021/01/21 00:41:47;;;;;;;138.62;45.95;;;;;;;-20.94;82.35;102243.08;1862201;77;21104;-88
2021/01/21 00:44:16;;;;;;;117.70;36.98;;;;;;;-21.03;82.34;102239.16;1861955;76;21057;-87
2021/01/21 00:46:44;;;;;;;188.45;61.75;;;;;;;-21.09;82.35;102241.13;1862188;77;22099;-87
2021/01/21 00:49:12;;;;;;;186.25;62.00;;;;;;;-21.13;82.61;102247.83;1862062;77;21132;-87
2021/01/21 00:51:41;;;;;;;146.93;42.83;;;;;;;-21.17;82.69;102244.25;1862258;77;21156;-87
2021/01/21 00:54:09;;;;;;;183.30;51.73;;;;;;;-21.25;82.54;102244.00;1861992;77;21119;-88
2021/01/21 00:56:37;;;;;;;96.17;37.48;;;;;;;-21.29;82.86;102239.53;1862226;76;21053;-88
2021/01/21 00:59:06;;;;;;;172.15;56.18;;;;;;;-21.29;83.06;102235.82;1862127;76;21178;-87
2021/01/21 01:01:34;;;;;;;149.97;40.23;;;;;;;-21.32;83.10;102235.22;1839140;77;21148;-87
2021/01/21 01:04:04;;;;;;;;;;;;;;;-21.33;83.14;102235.95;1796474;78;21123;-88
2021/01/21 01:06:33;;;;;;;92.55;36.17;;;;;;;-21.33;83.21;102237.19;1828351;78;20546;-87
2021/01/21 01:09:03;;;;;;;88.70;29.82;;;;;;;-21.31;83.29;102239.42;1828306;78;22072;-87
2021/01/21 01:11:32;;;;;;;103.27;30.00;;;;;;;-21.30;83.29;102228.78;1828485;78;22272;-87
2021/01/21 01:14:01;;;;;;;111.28;36.75;;;;;;;-21.30;83.25;102226.66;1828382;78;21575;-87
2021/01/21 01:16:29;;;;;;;126.45;39.00;;;;;;;-21.32;83.21;102224.08;1828442;78;23043;-87
2021/01/21 01:19:06;;;;;;;93.35;28.60;;;;;;;-21.34;83.00;102219.37;1823693;78;21215;-87
2021/01/21 01:21:34;;;;;;;118.67;35.78;;;;;;;-21.41;82.79;102215.91;1847789;77;21552;-87
2021/01/21 01:24:03;;;;;;;125.65;38.53;;;;;;;-21.52;82.68;102210.11;1862206;76;21171;-87
2021/01/21 01:26:33;;;;;;;163.72;50.63;;;;;;;-21.59;82.65;102201.73;1862061;76;21636;-87
2021/01/21 01:29:11;;;;;;;87.95;27.25;;;;;;;-21.60;82.69;102190.98;1872326;75;28131;-89
2021/01/21 01:31:39;;;;;;;78.33;26.12;;;;;;;-21.64;82.93;102217.81;1840174;77;21185;-89
2021/01/21 01:34:07;;;;;;;118.50;32.45;;;;;;;-21.62;83.23;102218.44;1840345;77;21123;-89
2021/01/21 01:36:37;;;;;;;90.85;27.22;;;;;;;-21.57;83.31;102229.94;1835254;77;21236;-89
2021/01/21 01:39:05;;;;;;;111.62;31.37;;;;;;;-21.54;83.35;102234.23;1827125;77;21210;-88
2021/01/21 01:41:38;;;;;;;84.85;28.42;;;;;;;-21.45;83.53;102247.34;1813019;78;21132;-89
2021/01/21 01:44:06;;;;;;;79.72;21.93;;;;;;;-21.37;83.50;102251.66;1824209;78;21190;-89
2021/01/21 01:46:34;;;;;;;134.22;38.48;;;;;;;-21.36;83.19;102249.69;1824239;78;21179;-89
2021/01/21 01:49:04;;;;;;;113.85;34.75;;;;;;;-21.34;83.12;102244.50;1824128;77;21143;-88
2021/01/21 01:51:35;;;;;;;74.58;22.85;;;;;;;-21.28;83.24;102244.63;1824181;77;21171;-88
2021/01/21 01:54:05;;;;;;;138.32;39.70;;;;;;;-21.20;83.39;102247.70;1824170;78;21167;-89
2021/01/21 01:56:34;;;;;;;102.20;33.45;;;;;;;-21.12;83.82;102233.48;1821316;77;21159;-89
2021/01/21 01:59:04;;;;;;;146.98;39.40;;;;;;;-21.03;83.97;102233.33;1821257;78;22133;-89
2021/01/21 02:01:37;;;;;;;141.60;41.85;;;;;;;-21.02;83.76;102222.30;1801418;78;21137;-87
2021/01/21 02:04:06;;;;;;;146.82;45.60;;;;;;;-21.05;83.68;102223.66;1821208;77;21157;-87
2021/01/21 02:07:10;;;;;;;112.10;36.50;;;;;;;-21.03;83.59;102224.30;1888607;75;28052;-88
2021/01/21 02:09:44;;;;;;;141.03;45.00;;;;;;;-21.18;83.32;102213.16;1821583;77;21501;-87
2021/01/21 02:13:04;;;;;;;182.82;52.48;;;;;;;-21.30;83.33;102208.98;1825711;78;21468;-87
2021/01/21 02:16:07;;;;;;;75.17;24.82;;;;;;;-21.34;83.54;102220.99;1825669;78;21145;-88
2021/01/21 02:18:50;;;;;;;104.12;33.67;;;;;;;-21.34;83.82;102225.55;1825981;78;21141;-89
2021/01/21 02:22:01;;;;;;;111.42;35.65;;;;;;;-21.29;84.16;102223.09;1819336;78;21594;-89
2021/01/21 02:25:04;;;;;;;100.60;29.07;;;;;;;-21.28;84.14;102217.41;1794067;78;21576;-88
2021/01/21 02:28:00;;;;;;;101.85;29.07;;;;;;;-21.31;84.07;102219.63;1820270;78;22314;-89
2021/01/21 02:30:56;;;;;;;138.00;40.95;;;;;;;-21.38;84.12;102216.17;1824019;78;21199;-89
2021/01/21 02:33:56;;;;;;;103.00;35.28;;;;;;;-21.36;84.31;102212.57;1816183;78;21227;-89
2021/01/21 02:36:40;;;;;;;56.65;19.52;;;;;;;-21.37;84.30;102212.08;1822474;78;21604;-87
2021/01/21 02:39:16;;;;;;;68.37;20.60;;;;;;;-21.32;84.60;102212.09;1825021;78;21050;-88
2021/01/21 02:41:44;;;;;;;127.50;41.37;;;;;;;-21.24;84.80;102211.09;1826012;78;22199;-87
2021/01/21 02:44:14;;;;;;;123.10;37.60;;;;;;;-21.18;84.78;102208.21;1825667;78;21614;-88
2021/01/21 02:46:45;;;;;;;166.70;45.83;;;;;;;-21.16;84.55;102212.56;1825775;78;21180;-88
2021/01/21 02:49:15;;;;;;;123.47;38.17;;;;;;;-21.15;84.44;102208.47;1825909;77;21466;-88
2021/01/21 02:52:01;;;;;;;112.68;33.35;;;;;;;-21.21;84.07;102207.98;1823959;78;21064;-88
2021/01/21 02:55:10;;;;;;;123.18;38.25;;;;;;;-21.30;84.04;102208.98;1823391;77;21412;-88
2021/01/21 02:58:07;;;;;;;72.15;24.80;;;;;;;-21.31;84.12;102206.41;1820914;77;21230;-87
2021/01/21 03:00:38;;;;;;;139.65;41.48;;;;;;;-21.28;84.18;102211.22;1821975;77;21599;-88
2021/01/21 03:03:13;;;;;;;96.85;32.67;;;;;;;-21.22;84.13;102206.25;1824222;78;21151;-88
2021/01/21 03:05:46;;;;;;;96.08;30.80;;;;;;;-21.24;83.95;102206.50;1821678;77;21096;-88
2021/01/21 03:08:14;;;;;;;126.75;36.33;;;;;;;-21.22;83.98;102208.34;1821457;78;22101;-88
2021/01/21 03:10:44;;;;;;;77.05;24.75;;;;;;;-21.19;83.90;102205.27;1823966;77;21143;-88
2021/01/21 03:13:13;;;;;;;69.58;22.35;;;;;;;-21.17;83.95;102208.36;1803586;78;21199;-87
2021/01/21 03:15:44;;;;;;;54.63;19.80;;;;;;;-21.13;83.93;102214.41;1821104;78;21186;-88
2021/01/21 03:18:14;;;;;;;61.18;21.20;;;;;;;-21.08;83.99;102216.02;1820575;78;21100;-88
2021/01/21 03:20:43;;;;;;;123.50;36.53;;;;;;;-21.01;84.27;102217.84;1802886;78;21543;-87
2021/01/21 03:23:12;;;;;;;93.67;28.98;;;;;;;-20.92;84.32;102219.31;1820399;78;28232;-87
2021/01/21 03:25:43;;;;;;;103.15;30.77;;;;;;;-20.86;84.26;102210.76;1820508;78;21072;-87
2021/01/21 03:28:13;;;;;;;117.55;39.20;;;;;;;-20.83;84.01;102215.08;1823346;77;21151;-88
2021/01/21 03:30:41;;;;;;;117.67;39.75;;;;;;;-20.84;83.64;102212.99;1823451;78;21190;-88
2021/01/21 03:33:09;;;;;;;121.80;38.55;;;;;;;-20.88;83.43;102211.39;1823550;78;21614;-88
2021/01/21 03:35:39;;;;;;;101.53;32.58;;;;;;;-20.93;83.18;102209.79;1820564;78;21178;-88
2021/01/21 03:38:08;;;;;;;79.60;26.27;;;;;;;-21.01;82.97;102212.89;1823632;78;21199;-88
2021/01/21 03:40:38;;;;;;;159.37;45.90;;;;;;;-21.05;82.93;102208.81;1837208;76;21168;-88
2021/01/21 03:43:06;;;;;;;90.40;30.25;;;;;;;-21.09;83.06;102208.95;1825152;78;21188;-88
2021/01/21 03:45:56;;;;;;;124.95;39.45;;;;;;;-21.08;83.00;102209.44;1872408;75;28759;-88
2021/01/21 03:48:24;;;;;;;108.92;32.60;;;;;;;-21.19;83.12;102208.98;1840167;77;21141;-88
2021/01/21 03:51:10;;;;;;;86.57;31.02;;;;;;;-21.20;83.50;102206.02;1840024;77;21341;-89
2021/01/21 03:53:40;;;;;;;65.03;20.52;;;;;;;-21.18;83.79;102208.21;1835749;77;21090;-89
2021/01/21 03:56:10;;;;;;;140.77;40.35;;;;;;;-21.17;83.95;102207.12;1835776;77;21141;-89
2021/01/21 03:58:40;;;;;;;106.78;33.08;;;;;;;-21.10;84.25;102206.36;1839986;78;21097;-88
2021/01/21 04:01:11;;;;;;;106.30;33.58;;;;;;;-21.05;84.44;102201.39;1836103;77;21202;-89
2021/01/21 04:03:39;;;;;;;128.97;40.17;;;;;;;-21.02;84.70;102207.44;1840345;77;22059;-89
2021/01/21 04:06:10;;;;;;;130.32;38.35;;;;;;;-20.99;84.81;102205.22;1839935;77;21180;-89
2021/01/21 04:08:39;;;;;;;118.93;37.45;;;;;;;-20.97;84.99;102198.78;1816343;78;21109;-89
2021/01/21 04:11:27;;;;;;;144.32;44.75;;;;;;;-20.88;85.29;102197.39;1887201;75;28321;-88
2021/01/21 04:13:57;;;;;;;130.97;37.42;;;;;;;-20.88;85.51;102199.02;1843815;77;21111;-89
2021/01/21 04:16:26;;;;;;;73.72;25.62;;;;;;;-20.83;85.71;102198.63;1848496;77;21422;-89
2021/01/21 04:18:54;;;;;;;110.80;33.42;;;;;;;-20.77;85.96;102206.88;1848430;77;21414;-88
2021/01/21 04:21:24;;;;;;;124.60;38.20;;;;;;;-20.69;86.22;102196.31;1848699;77;22340;-88
2021/01/21 04:23:59;;;;;;;99.40;32.80;;;;;;;-20.59;86.51;102198.76;1844120;77;28683;-88
2021/01/21 04:26:29;;;;;;;115.03;35.88;;;;;;;-20.52;86.68;102189.80;1840760;77;21154;-89
2021/01/21 04:28:57;;;;;;;123.25;40.98;;;;;;;-20.45;86.90;102187.40;1848529;77;21358;-88
2021/01/21 04:31:25;;;;;;;83.03;28.45;;;;;;;-20.38;87.19;102183.39;1848581;77;21440;-88
2021/01/21 04:33:54;;;;;;;102.50;34.15;;;;;;;-20.26;87.50;102186.33;1848559;77;21143;-88
2021/01/21 04:36:24;;;;;;;107.92;36.63;;;;;;;-20.12;87.90;102185.73;1836219;77;21136;-89
2021/01/21 04:38:53;;;;;;;98.63;32.53;;;;;;;-20.01;88.19;102186.53;1818617;77;21139;-89
2021/01/21 04:41:23;;;;;;;102.30;34.53;;;;;;;-19.90;88.39;102186.08;1848620;77;21358;-88
2021/01/21 04:44:06;;;;;;;108.87;34.95;;;;;;;-19.81;88.46;102195.41;1847183;77;21140;-88
2021/01/21 04:46:40;;;;;;;104.95;34.38;;;;;;;-19.73;88.56;102194.36;1842150;77;21116;-87
2021/01/21 04:49:11;;;;;;;103.10;31.33;;;;;;;-19.66;88.62;102203.52;1837343;77;21159;-88
2021/01/21 04:51:43;;;;;;;120.90;35.92;;;;;;;-19.62;88.64;102200.11;1847666;77;21170;-88
2021/01/21 04:54:21;;;;;;;97.08;32.55;;;;;;;-19.55;88.71;102196.47;1844821;77;22219;-89
2021/01/21 04:57:03;;;;;;;146.07;43.83;;;;;;;-19.41;88.83;102202.05;1872414;75;22199;-90
2021/01/21 04:59:46;;;;;;;88.67;30.08;;;;;;;-19.43;88.81;102196.13;1840119;77;21161;-88
2021/01/21 05:02:16;;;;;;;112.83;36.55;;;;;;;-19.36;88.90;102198.66;1835955;77;21350;-87
2021/01/21 05:04:47;;;;;;;;;;;;;;;-19.30;88.80;102205.69;1838456;77;20935;-87
2021/01/21 05:07:26;;;;;;;93.62;32.25;;;;;;;-19.30;88.81;102198.24;1835209;77;20226;-86
2021/01/21 05:09:55;;;;;;;106.23;37.70;;;;;;;-19.30;88.66;102204.05;1840561;77;21148;-87
2021/01/21 05:12:23;;;;;;;98.00;33.47;;;;;;;-19.31;88.64;102200.23;1840696;77;21121;-87
2021/01/21 05:15:13;;;;;;;102.47;36.28;;;;;;;-19.27;88.78;102198.47;1871714;75;28140;-87
2021/01/21 05:17:53;;;;;;;77.97;27.25;;;;;;;-19.29;88.90;102196.25;1835934;77;21177;-88
2021/01/21 05:20:38;;;;;;;99.40;34.67;;;;;;;-19.24;89.20;102199.55;1733534;81;22268;-89
2021/01/21 05:23:25;;;;;;;124.22;43.65;;;;;;;-19.09;89.59;102197.28;1871704;76;28247;-89
2021/01/21 05:26:12;;;;;;;120.70;40.83;;;;;;;-19.07;89.73;102198.66;1838629;77;21149;-87
2021/01/21 05:28:48;;;;;;;113.80;40.60;;;;;;;-19.02;89.87;102201.07;1834942;77;21446;-88
2021/01/21 05:31:19;;;;;;;101.72;39.75;;;;;;;-18.96;89.94;102203.98;1832225;77;21169;-88
2021/01/21 05:33:50;;;;;;;107.25;38.65;;;;;;;-18.94;90.04;102209.05;1840380;77;20971;-87
2021/01/21 05:36:26;;;;;;;120.25;42.03;;;;;;;-18.88;90.37;102213.20;1835160;77;21133;-87
2021/01/21 05:39:06;;;;;;;113.22;39.65;;;;;;;-18.80;90.60;102209.99;1838265;77;21117;-89
2021/01/21 05:41:53;;;;;;;;;;;;;;;-18.74;90.80;102207.57;1842911;77;21168;-87
2021/01/21 05:44:25;;;;;;;107.07;35.75;;;;;;;-18.65;91.03;102210.21;1838736;78;20277;-88
2021/01/21 05:46:55;;;;;;;114.25;38.67;;;;;;;-18.57;91.28;102207.88;1805276;77;21151;-88
2021/01/21 05:49:26;;;;;;;97.85;37.53;;;;;;;-18.50;91.41;102213.75;1840466;77;21181;-88
2021/01/21 05:51:57;;;;;;;112.77;41.18;;;;;;;-18.42;91.63;102210.17;1835882;77;21153;-87
2021/01/21 05:54:28;;;;;;;121.75;41.70;;;;;;;-18.32;91.85;102209.17;1840423;77;21255;-87
2021/01/21 05:57:00;;;;;;;105.80;36.28;;;;;;;-18.24;91.94;102207.22;1817102;76;21097;-87
2021/01/21 05:59:29;;;;;;;106.55;38.23;;;;;;;-18.20;91.92;102209.14;1794566;78;21177;-87
2021/01/21 06:02:02;;;;;;;105.45;40.10;;;;;;;-18.16;91.99;102217.67;1803668;78;21592;-87
2021/01/21 06:04:35;;;;;;;113.40;39.25;;;;;;;-18.14;92.06;102215.77;1802983;78;21180;-87
2021/01/21 06:07:04;;;;;;;105.83;39.92;;;;;;;-18.09;92.25;102218.56;1807329;79;21425;-88
2021/01/21 06:09:32;;;;;;;81.20;29.90;;;;;;;-18.02;92.51;102204.53;1835532;76;21115;-87
2021/01/21 06:12:04;;;;;;;111.95;38.75;;;;;;;-17.95;92.73;102210.39;1824136;76;21528;-88
2021/01/21 06:14:32;;;;;;;94.95;36.68;;;;;;;-17.86;92.95;102205.16;1814748;77;21195;-88
2021/01/21 06:17:01;;;;;;;100.33;38.05;;;;;;;-17.78;93.06;102210.25;1821003;76;21148;-84
2021/01/21 06:20:20;;;;;;;88.75;31.90;;;;;;;-17.71;93.20;102220.25;1815364;78;21654;-85
2021/01/21 06:26:58;;;;;;;96.30;32.95;;;;;;;-17.58;93.62;102216.06;1808455;78;21109;-85
2021/01/21 06:33:52;;;;;;;127.05;42.55;;;;;;;-17.34;94.45;102215.53;1822629;76;21208;-85
2021/01/21 06:40:53;;;;;;;108.70;34.15;;;;;;;-17.09;95.04;102224.20;1807486;79;21076;-84
2021/01/21 06:51:50;;;;;;;155.10;48.73;;;;;;;-16.69;95.96;102223.30;1796481;79;21573;-84
2021/01/21 07:01:46;;;;;;;146.90;49.48;;;;;;;-16.32;97.31;102205.63;1796508;79;21459;-85
2021/01/21 07:09:00;;;;;;;119.02;39.27;;;;;;;-16.25;96.06;102211.83;1818117;78;21144;-85
2021/01/21 07:27:35;;;;;;;95.20;34.13;;;;;;;-15.66;96.84;102179.02;1809036;79;21114;-85
2021/01/21 07:34:40;;;;;;;108.85;37.70;;;;;;;-15.31;98.24;102206.41;1809615;79;21039;-84
2021/01/21 07:45:46;;;;;;;100.62;36.28;;;;;;;-14.92;97.30;102188.98;1794714;79;21134;-83
2021/01/21 07:52:20;;;;;;;81.75;29.98;;;;;;;-14.78;97.23;102170.98;1809558;79;21023;-85
2021/01/21 07:59:13;;;;;;;108.30;42.10;;;;;;;-14.63;97.01;102180.93;1777625;80;21581;-84
2021/01/21 08:06:12;;;;;;;90.00;35.63;;;;;;;-14.45;97.25;102166.02;1801187;77;21189;-86
2021/01/21 08:17:28;;;;;;;112.77;43.65;;;;;;;-13.98;97.97;102135.41;1788545;79;21137;-85
2021/01/21 08:24:08;;;;;;;128.93;46.88;;;;;;;-13.54;98.72;102142.55;1777725;78;21237;-86
2021/01/21 08:27:21;;;;;;;118.62;48.30;;;;;;;-13.30;99.02;102125.30;1848042;77;21384;-86
2021/01/21 08:34:23;;;;;;;110.85;41.48;;;;;;;-12.93;99.26;102122.34;1787239;79;21176;-87
2021/01/21 08:45:30;;;;;;;88.97;36.77;;;;;;;-12.41;99.31;102125.06;1813057;77;21122;-86
2021/01/21 08:52:22;;;;;;;114.92;42.35;;;;;;;-12.06;99.58;102132.86;1796369;79;21165;-84
2021/01/21 08:59:29;;;;;;;106.30;42.58;;;;;;;-11.79;98.74;102101.27;1796522;79;21019;-84
2021/01/21 09:10:45;;;;;;;87.92;38.53;;;;;;;-11.34;100.00;102095.08;1829158;78;21059;-85
2021/01/21 09:13:19;;;;;;;80.22;33.18;;;;;;;-11.02;100.00;102098.37;1829404;77;21690;-88
2021/01/21 09:15:58;;;;;;;89.62;36.08;;;;;;;-10.80;100.00;102102.52;1822576;77;22218;-88
2021/01/21 09:18:32;;;;;;;88.17;34.65;;;;;;;-10.57;100.00;102093.30;1815845;78;21106;-88
2021/01/21 09:21:17;;;;;;;103.05;38.78;;;;;;;-10.36;100.00;102093.56;1823065;78;21145;-88
2021/01/21 09:23:56;;;;;;;69.00;29.30;;;;;;;-10.17;100.00;102082.06;1828294;78;21153;-88
2021/01/21 09:26:25;;;;;;;69.00;28.60;;;;;;;-9.97;100.00;102078.49;1825268;77;21136;-88
2021/01/21 09:29:00;;;;;;;62.98;29.07;;;;;;;-9.79;100.00;102078.23;1804422;78;22023;-88
2021/01/21 09:31:31;;;;;;;61.53;28.05;;;;;;;-9.63;100.00;102076.66;1795744;79;21078;-88
2021/01/21 09:34:01;;;;;;;132.65;48.33;;;;;;;-9.46;100.00;102082.63;1795785;79;21164;-88
2021/01/21 09:36:30;;;;;;;128.57;43.23;;;;;;;-9.29;100.00;102082.75;1838989;77;21554;-88
2021/01/21 09:39:00;;;;;;;75.42;30.85;;;;;;;-9.13;100.00;102071.86;1847737;77;21447;-89
2021/01/21 09:41:28;;;;;;;56.20;24.90;;;;;;;-8.98;100.00;102070.20;1848158;77;22098;-88
2021/01/21 09:43:56;;;;;;;52.27;21.95;;;;;;;-8.83;100.00;102054.61;1827542;77;21153;-89
2021/01/21 09:46:25;;;;;;;43.42;20.20;;;;;;;-8.64;100.00;102038.30;1810551;77;21524;-89
2021/01/21 09:48:55;;;;;;;46.50;19.27;;;;;;;-8.46;100.00;102037.50;1801066;79;21155;-89
2021/01/21 09:51:26;;;;;;;43.60;19.98;;;;;;;-8.31;100.00;102038.70;1801035;79;21088;-88
2021/01/21 09:53:58;;;;;;;39.65;19.50;;;;;;;-8.18;100.00;102036.95;1801080;79;21571;-88
2021/01/21 09:56:29;;;;;;;42.10;20.43;;;;;;;-8.03;100.00;102036.47;1822437;77;21201;-89
2021/01/21 09:58:57;;;;;;;40.38;19.23;;;;;;;-7.87;100.00;102032.66;1824680;77;21153;-88
2021/01/21 10:01:24;;;;;;;37.08;20.75;;;;;;;-7.70;100.00;102022.91;1828249;78;21131;-88
2021/01/21 10:03:53;;;;;;;44.20;20.55;;;;;;;-7.52;100.00;102014.04;1807483;78;21213;-89
2021/01/21 10:06:20;;;;;;;43.28;19.75;;;;;;;-7.39;100.00;102008.84;1828160;77;21659;-88
2021/01/21 10:08:55;;;;;;;44.50;20.50;;;;;;;-7.29;100.00;102000.20;1828357;77;21074;-89
2021/01/21 10:11:26;;;;;;;42.67;19.95;;;;;;;-7.16;100.00;101992.84;1828452;78;21428;-89
2021/01/21 10:13:56;;;;;;;43.38;22.25;;;;;;;-7.03;100.00;101988.89;1819990;77;21593;-89
2021/01/21 10:16:25;;;;;;;44.03;22.50;;;;;;;-6.90;100.00;101993.78;1820951;77;22242;-89
2021/01/21 10:18:54;;;;;;;41.10;21.45;;;;;;;-6.77;100.00;102000.78;1820821;77;21346;-89
2021/01/21 10:21:27;;;;;;;48.55;24.12;;;;;;;-6.65;100.00;101996.39;1817414;77;21144;-89
2021/01/21 10:23:55;;;;;;;45.70;22.58;;;;;;;-6.55;100.00;101989.37;1765102;80;21286;-89
2021/01/21 10:26:23;;;;;;;45.23;22.22;;;;;;;-6.48;100.00;101991.61;1830722;78;21553;-90
2021/01/21 10:28:51;;;;;;;47.88;24.75;;;;;;;-6.44;100.00;101983.64;1828361;78;21246;-90
2021/01/21 10:31:19;;;;;;;44.00;20.82;;;;;;;-6.38;100.00;101975.74;1828870;78;22115;-90
2021/01/21 10:33:48;;;;;;;42.88;21.85;;;;;;;-6.31;100.00;101972.87;1828661;77;21510;-89
2021/01/21 10:36:17;;;;;;;43.90;22.85;;;;;;;-6.25;100.00;101967.06;1828560;78;21058;-89
2021/01/21 10:38:45;;;;;;;40.52;23.22;;;;;;;-6.21;100.00;101965.03;1828261;78;21196;-90
2021/01/21 10:41:13;;;;;;;41.40;21.55;;;;;;;-6.17;100.00;101960.86;1828228;78;21086;-88
2021/01/21 10:43:41;;;;;;;41.65;22.00;;;;;;;-6.16;100.00;101965.94;1828224;78;21364;-89
2021/01/21 10:46:09;;;;;;;46.08;21.97;;;;;;;-6.17;100.00;101960.86;1828320;77;21141;-91
2021/01/21 10:48:38;;;;;;;40.33;21.02;;;;;;;-6.19;100.00;101963.34;1828345;78;21106;-90
2021/01/21 10:51:06;;;;;;;42.13;21.27;;;;;;;-6.23;100.00;101964.98;1828294;77;21585;-91
2021/01/21 10:53:34;;;;;;;47.75;23.07;;;;;;;-6.26;100.00;101969.15;1828679;78;21157;-90
2021/01/21 10:56:03;;;;;;;45.45;21.87;;;;;;;-6.28;100.00;101961.92;1828555;78;21345;-91
2021/01/21 10:58:32;;;;;;;39.18;20.45;;;;;;;-6.26;100.00;101956.47;1828558;78;21538;-91
2021/01/21 11:01:00;;;;;;;35.45;20.20;;;;;;;-6.24;100.00;101952.29;1828572;77;21601;-91
2021/01/21 11:03:28;;;;;;;41.88;21.60;;;;;;;-6.20;100.00;101950.22;1828448;77;21542;-91
2021/01/21 11:05:56;;;;;;;45.48;23.10;;;;;;;-6.15;100.00;101942.30;1828652;77;21212;-91
2021/01/21 11:08:24;;;;;;;42.50;20.85;;;;;;;-6.10;100.00;101940.67;1828618;77;21356;-90
2021/01/21 11:10:52;;;;;;;39.60;20.72;;;;;;;-6.07;100.00;101931.85;1828624;77;21597;-90
2021/01/21 11:13:20;;;;;;;40.80;21.02;;;;;;;-6.04;100.00;101934.41;1828641;77;21197;-90
2021/01/21 11:15:51;;;;;;;43.55;21.95;;;;;;;-6.03;100.00;101929.78;1828662;78;21066;-91
2021/01/21 11:18:21;;;;;;;38.98;22.10;;;;;;;-5.98;100.00;101926.45;1828873;77;21189;-91
2021/01/21 11:20:49;;;;;;;36.88;20.15;;;;;;;-5.92;100.00;101926.53;1828697;77;21350;-90
2021/01/21 11:23:16;;;;;;;44.25;22.32;;;;;;;-5.86;100.00;101922.80;1828257;77;21161;-91
2021/01/21 11:25:44;;;;;;;37.80;20.92;;;;;;;-5.76;100.00;101922.11;1828381;77;21123;-90
2021/01/21 11:28:12;;;;;;;41.77;20.27;;;;;;;-5.70;100.00;101910.76;1828584;77;21126;-91
2021/01/21 11:31:10;;;;;;;42.88;22.82;;;;;;;-5.62;100.00;101908.73;1828624;77;21138;-91
2021/01/21 11:33:41;;;;;;;39.23;20.15;;;;;;;-5.57;100.00;101913.47;1825730;78;21484;-90
2021/01/21 11:36:09;;;;;;;40.50;22.10;;;;;;;-5.51;100.00;101902.52;1828561;78;21138;-90
2021/01/21 11:38:37;;;;;;;40.88;20.37;;;;;;;-5.46;100.00;101895.83;1828577;77;21150;-90
2021/01/21 11:41:05;;;;;;;37.58;20.25;;;;;;;-5.43;100.00;101896.72;1828736;78;21162;-90
2021/01/21 11:43:35;;;;;;;37.75;20.62;;;;;;;-5.41;100.00;101903.91;1828200;78;21133;-90
2021/01/21 11:46:03;;;;;;;40.08;22.52;;;;;;;-5.36;100.00;101900.16;1828580;78;21538;-91
2021/01/21 11:48:32;;;;;;;41.63;22.27;;;;;;;-5.34;100.00;101901.03;1828529;77;21537;-90
2021/01/21 11:51:01;;;;;;;38.40;20.57;;;;;;;-5.32;100.00;101903.58;1828543;78;21553;-90
2021/01/21 11:53:31;;;;;;;41.25;21.60;;;;;;;-5.27;100.00;101909.16;1828649;77;21157;-90
2021/01/21 11:56:00;;;;;;;40.88;21.82;;;;;;;-5.22;100.00;101909.21;1828630;78;21162;-91
2021/01/21 11:58:37;;;;;;;40.60;21.33;;;;;;;-5.19;100.00;101909.26;1824920;77;21547;-90
2021/01/21 12:01:12;;;;;;;42.08;20.43;;;;;;;-5.18;100.00;101905.89;1828605;77;21149;-90
2021/01/21 12:03:41;;;;;;;43.95;22.22;;;;;;;-5.20;100.00;101905.02;1828435;77;21105;-91
2021/01/21 12:06:10;;;;;;;40.48;22.20;;;;;;;-5.23;100.00;101905.83;1828446;78;21154;-90
2021/01/21 12:08:38;;;;;;;38.38;20.80;;;;;;;-5.24;100.00;101904.52;1828313;77;21146;-90
2021/01/21 12:11:06;;;;;;;42.90;21.87;;;;;;;-5.26;100.00;101901.14;1828634;78;21353;-90
2021/01/21 12:13:34;;;;;;;42.38;21.68;;;;;;;-5.26;100.00;101896.90;1828516;77;21134;-90
2021/01/21 12:16:02;;;;;;;42.35;22.50;;;;;;;-5.26;100.00;101896.90;1828546;77;21121;-90
2021/01/21 12:18:30;;;;;;;42.93;23.32;;;;;;;-5.23;100.00;101896.08;1828556;77;21130;-91
2021/01/21 12:20:58;;;;;;;43.20;22.55;;;;;;;-5.22;100.00;101893.97;1828692;78;21149;-91
2021/01/21 12:23:26;;;;;;;44.08;22.27;;;;;;;-5.19;100.00;101891.48;1828560;78;21407;-91
2021/01/21 12:25:54;;;;;;;44.00;23.40;;;;;;;-5.17;100.00;101891.09;1826486;78;21615;-90
2021/01/21 12:28:22;;;;;;;42.53;22.98;;;;;;;-5.11;100.00;101895.35;1825789;78;21215;-91
2021/01/21 12:30:50;;;;;;;44.80;24.10;;;;;;;-5.05;100.00;101893.30;1825759;78;21149;-90
2021/01/21 12:33:19;;;;;;;40.48;23.87;;;;;;;-5.00;100.00;101895.46;1825666;78;21134;-90
2021/01/21 12:35:47;;;;;;;46.75;24.87;;;;;;;-4.94;100.00;101893.00;1825678;78;21183;-91
2021/01/21 12:38:44;;;;;;;41.55;22.22;;;;;;;-4.87;100.00;101888.41;1825586;78;21121;-91
2021/01/21 12:41:18;;;;;;;42.13;23.10;;;;;;;-4.81;100.00;101891.00;1825789;78;21170;-91
2021/01/21 12:43:46;;;;;;;46.42;24.25;;;;;;;-4.77;100.00;101889.34;1825624;77;21166;-90
2021/01/21 12:46:18;;;;;;;47.53;23.55;;;;;;;-4.76;100.00;101889.34;1825597;78;21149;-91
2021/01/21 12:48:47;;;;;;;44.03;22.17;;;;;;;-4.78;100.00;101881.28;1825679;78;21429;-90
2021/01/21 12:51:16;;;;;;;45.92;22.75;;;;;;;-4.81;100.00;101876.19;1825633;78;21562;-91
2021/01/21 12:53:44;;;;;;;43.28;22.85;;;;;;;-4.81;100.00;101881.27;1825707;78;21142;-90
2021/01/21 12:56:15;;;;;;;37.17;19.98;;;;;;;-4.83;100.00;101876.15;1825668;77;21138;-90
2021/01/21 12:58:43;;;;;;;42.98;22.22;;;;;;;-4.85;99.99;101876.58;1825653;78;21051;-91
2021/01/21 13:01:11;;;;;;;43.33;22.05;;;;;;;-4.85;99.96;101881.66;1738432;81;21380;-90
2021/01/21 13:03:40;;;;;;;39.42;22.37;;;;;;;-4.85;100.00;101876.58;1769099;81;21150;-91
2021/01/21 13:06:09;;;;;;;51.18;27.17;;;;;;;-4.85;100.00;101871.50;1769317;79;21642;-90
2021/01/21 13:08:37;;;;;;;44.60;22.87;;;;;;;-4.84;100.00;101870.63;1764830;80;21904;-90
2021/01/21 13:11:06;;;;;;;43.90;22.32;;;;;;;-4.85;100.00;101871.89;1821625;78;21225;-91
2021/01/21 13:13:34;;;;;;;48.75;25.65;;;;;;;-4.87;99.84;101870.63;1825645;78;21597;-91
2021/01/21 13:16:02;;;;;;;73.78;34.30;;;;;;;-4.90;99.79;101868.05;1825594;78;21545;-90
2021/01/21 13:18:31;;;;;;;103.45;43.50;;;;;;;-4.93;99.81;101868.87;1821260;77;21554;-91
2021/01/21 13:21:00;;;;;;;103.22;48.42;;;;;;;-4.94;99.97;101866.33;1795312;79;21156;-91
2021/01/21 13:23:28;;;;;;;49.58;25.68;;;;;;;-4.93;100.00;101868.87;1808238;78;21072;-91